Portada
METAR-TAF:

METAR-TAF

Aeropuertos :

Aeropuerto de Tánger-Ibn Battuta

Tánger, Marruecos

latitud: 35-44N, longitud: 005-54W, altitud: 19 m

Observación

El informe se hizo hace 6 minutos, a las 03:30 UTC
Viento 5 kt del sur-suroeste, variando entre sur y oeste-suroeste
Temperatura 14°C
Humedad 88%
Presión 1014 hPa
Visibilidad: 8000 m
Escasas nubes a una altura de 2000 ft

METAR: GMTT 250330Z 20005KT 170V240 8000 FEW020 14/12 Q1014 NOSIG

Hora: 03:36 (03:36 UTC)

Pronóstico

El informe se hizo hace 10 horas y 36 minutos, a las 17:00 UTC
Pronóstico válido del 24 a las 18 UTC al 25 a las 24 UTC
Viento 6 kt del oeste-suroeste
Visibilidad 10 km o más
Nubes dispersas a una altura de 2000 ft
Temporalmente
del 25 a las 08 UTC al 25 a las 12 UTC
Viento 12 kt del oeste-noroeste
Visibilidad: 4000 m
lluvia

TAF: GMTT 241700Z 2418/2524 24006KT 9999 SCT020 TEMPO 2508/2512 30012KT 4000 RA

Observaciones y pronósticos meteorológicos de más de 4000 aeropuertos (mensajes METAR y TAF).

Los puntos amarillos y rojos representan las estaciones disponibles.

Ponga el ratón en el punto deseado para ver el nombre de la estación.

Haga clic para ver las observaciones y los pronósticos meteorológicos.

Para cambiar el mapa : haga clic en los botones verdes con una cruz de color negro para hacer un zoom, en el botón verde con un guión para alejar o en las flechas verdes para mapas adyacentes.


METAR-TAF: